Time;durP1;ratioP1;P1;durP2;ratioP2;P2;SDS_P1;SDS_P2;PMS_P1;PMS_P2;Temp;Humidity;BMP_temperature;BMP_pressure;BME280_temperature;BME280_humidity;BME280_pressure;Samples;Min_cycle;Max_cycle;Signal;HPM_P1;HPM_P2
2022/05/25 00:00:20;;;;;;;1.85;0.30;;;14.50;70.90;;;;;;5072735;28;20029;-76
2022/05/25 00:02:46;;;;;;;0.60;0.40;;;14.40;70.80;;;;;;5055960;28;20469;-77
2022/05/25 00:05:14;;;;;;;2.58;0.30;;;14.40;71.00;;;;;;5072640;28;20028;-76
2022/05/25 00:07:40;;;;;;;0.73;0.40;;;14.40;72.00;;;;;;5072407;28;20017;-76
2022/05/25 00:10:06;;;;;;;0.73;0.43;;;14.40;71.20;;;;;;5072470;28;20150;-76
2022/05/25 00:12:32;;;;;;;1.65;0.45;;;14.40;71.40;;;;;;5072445;28;20028;-75
2022/05/25 00:14:58;;;;;;;2.25;0.40;;;14.40;71.20;;;;;;5072333;28;20024;-75
2022/05/25 00:17:25;;;;;;;1.65;0.57;;;14.50;71.20;;;;;;5072420;28;20385;-75
2022/05/25 00:19:59;;;;;;;1.70;0.30;;;14.50;71.20;;;;;;5072453;28;20147;-75
2022/05/25 00:22:45;;;;;;;1.95;0.40;;;14.50;71.10;;;;;;5072262;28;20053;-75
2022/05/25 00:25:14;;;;;;;2.00;0.40;;;14.50;71.20;;;;;;5072340;28;20028;-75
2022/05/25 00:27:40;;;;;;;2.13;0.43;;;14.50;71.30;;;;;;5072517;28;20056;-75
2022/05/25 00:30:06;;;;;;;1.90;0.47;;;14.50;71.20;;;;;;5072527;28;20451;-75
2022/05/25 00:32:32;;;;;;;1.10;0.43;;;14.50;71.50;;;;;;5071820;28;20024;-76
2022/05/25 00:34:58;;;;;;;2.63;0.38;;;14.50;71.80;;;;;;5071995;28;20499;-76
2022/05/25 00:37:23;;;;;;;3.40;0.32;;;14.40;72.00;;;;;;5072114;28;20020;-76
2022/05/25 00:39:50;;;;;;;0.45;0.25;;;14.40;72.30;;;;;;5072067;28;20034;-76
2022/05/25 00:42:16;;;;;;;1.40;0.40;;;14.40;72.40;;;;;;5055567;28;20058;-75
2022/05/25 00:44:42;;;;;;;5.68;0.55;;;14.40;72.40;;;;;;5071833;28;20028;-75
2022/05/25 00:47:10;;;;;;;0.93;0.50;;;14.40;73.30;;;;;;5071863;28;20033;-76
2022/05/25 00:49:36;;;;;;;0.43;0.30;;;14.40;72.60;;;;;;5070780;28;20021;-76
2022/05/25 00:52:06;;;;;;;1.35;0.50;;;14.40;72.50;;;;;;5071353;28;20358;-74
2022/05/25 00:54:52;;;;;;;1.88;0.32;;;14.40;72.60;;;;;;5071551;28;20107;-76
2022/05/25 00:57:22;;;;;;;;;;;14.40;72.70;;;;;;5072242;28;20483;-76
2022/05/25 01:00:18;;;;;;;0.73;0.50;;;14.40;72.50;;;;;;5071681;28;19908;-76
2022/05/25 01:02:53;;;;;;;0.43;0.30;;;14.40;72.50;;;;;;5071865;28;20047;-77
2022/05/25 01:05:40;;;;;;;0.90;0.30;;;14.30;72.50;;;;;;5071607;28;20503;-77
2022/05/25 01:08:05;;;;;;;0.82;0.30;;;14.30;72.80;;;;;;5071605;28;20028;-76
2022/05/25 01:11:08;;;;;;;7.72;0.60;;;14.30;73.10;;;;;;5071413;28;20025;-76
2022/05/25 01:13:56;;;;;;;1.30;0.50;;;14.20;73.70;;;;;;5071443;28;20051;-76
2022/05/25 01:16:55;;;;;;;1.25;0.50;;;14.20;73.60;;;;;;5071341;28;20029;-75
2022/05/25 01:19:53;;;;;;;1.88;0.35;;;14.10;73.60;;;;;;5072994;28;20024;-76
2022/05/25 01:22:40;;;;;;;1.88;0.70;;;14.10;73.60;;;;;;5054227;28;20101;-74
2022/05/25 01:25:30;;;;;;;2.47;0.40;;;14.00;73.70;;;;;;5071217;28;20029;-75
2022/05/25 01:28:07;;;;;;;1.48;0.47;;;14.00;74.90;;;;;;5071562;28;20023;-75
2022/05/25 01:30:41;;;;;;;3.15;0.40;;;14.00;74.40;;;;;;5071329;28;20016;-75
2022/05/25 01:33:29;;;;;;;6.05;0.60;;;14.10;74.60;;;;;;5071274;28;20115;-74
2022/05/25 01:36:20;;;;;;;1.13;0.50;;;14.10;74.80;;;;;;5071367;28;20029;-75
2022/05/25 01:38:54;;;;;;;2.55;0.40;;;14.10;75.00;;;;;;5070839;28;20032;-75
2022/05/25 01:41:31;;;;;;;2.07;0.30;;;14.10;75.10;;;;;;5074489;28;20502;-74
2022/05/25 01:44:07;;;;;;;2.50;0.52;;;14.00;74.80;;;;;;5074584;28;20024;-75
2022/05/25 01:46:50;;;;;;;1.40;0.20;;;14.10;75.00;;;;;;5074615;28;20039;-74
2022/05/25 01:49:19;;;;;;;1.85;0.47;;;14.10;75.20;;;;;;5078724;28;20016;-74
2022/05/25 01:51:49;;;;;;;2.10;0.60;;;14.10;75.10;;;;;;5078382;28;20028;-75
2022/05/25 01:54:19;;;;;;;2.72;0.50;;;14.10;75.20;;;;;;5078292;28;20052;-74
2022/05/25 01:56:49;;;;;;;0.73;0.30;;;14.10;75.10;;;;;;5078497;28;20048;-75
2022/05/25 01:59:16;;;;;;;2.25;0.40;;;14.10;75.20;;;;;;5079805;28;20059;-75
2022/05/25 02:04:39;;;;;;;2.25;0.55;;;14.10;75.30;;;;;;5097259;28;20073;-75
2022/05/25 02:07:37;;;;;;;1.17;0.28;;;14.10;75.30;;;;;;5078995;28;20361;-76
2022/05/25 02:10:27;;;;;;;1.73;0.35;;;14.00;75.30;;;;;;5078536;28;20022;-75
2022/05/25 02:13:22;;;;;;;3.80;0.80;;;14.00;75.30;;;;;;5078212;28;20020;-75
2022/05/25 02:16:11;;;;;;;1.23;0.40;;;14.00;74.90;;;;;;5078478;28;20424;-75
2022/05/25 02:18:41;;;;;;;2.35;0.38;;;14.00;74.80;;;;;;5078188;28;20358;-78
2022/05/25 02:21:16;;;;;;;1.45;0.60;;;14.00;74.70;;;;;;5078199;28;20395;-78
2022/05/25 02:23:58;;;;;;;6.22;0.50;;;14.00;75.10;;;;;;5078230;28;20101;-78
2022/05/25 02:26:32;;;;;;;0.85;0.38;;;13.90;75.30;;;;;;5078344;28;20032;-78
2022/05/25 02:29:12;;;;;;;1.65;0.45;;;13.90;75.40;;;;;;5077912;28;20020;-77
2022/05/25 02:31:44;;;;;;;1.95;0.50;;;13.90;75.60;;;;;;5096023;28;20476;-77
2022/05/25 02:34:14;;;;;;;0.40;0.35;;;13.90;75.20;;;;;;5078034;28;20040;-77
2022/05/25 02:36:41;;;;;;;1.52;0.68;;;13.90;75.20;;;;;;5077885;28;20032;-76
2022/05/25 02:39:09;;;;;;;0.20;0.20;;;13.90;75.20;;;;;;5078056;28;20074;-76
2022/05/25 02:41:42;;;;;;;1.98;0.50;;;13.90;75.30;;;;;;5077986;28;20111;-77
2022/05/25 02:44:08;;;;;;;1.27;0.38;;;13.90;75.40;;;;;;5077704;28;20046;-77
2022/05/25 02:46:34;;;;;;;1.67;0.60;;;13.90;75.50;;;;;;5095627;28;20149;-77
2022/05/25 02:49:00;;;;;;;0.30;0.30;;;13.90;75.50;;;;;;5077881;28;20037;-77
2022/05/25 02:51:26;;;;;;;2.85;0.40;;;13.90;75.40;;;;;;5077659;28;20030;-76
2022/05/25 02:53:52;;;;;;;0.85;0.52;;;13.80;75.20;;;;;;5077858;28;20353;-76
2022/05/25 02:56:19;;;;;;;0.93;0.55;;;13.80;75.30;;;;;;5077775;28;20016;-76
2022/05/25 02:58:45;;;;;;;1.30;0.50;;;13.70;75.90;;;;;;5076066;28;20056;-77
2022/05/25 03:01:10;;;;;;;1.55;0.50;;;13.70;76.10;;;;;;5076997;28;20063;-75
2022/05/25 03:03:37;;;;;;;0.50;0.40;;;13.70;76.40;;;;;;5077589;28;20039;-77
2022/05/25 03:06:07;;;;;;;1.25;0.50;;;13.80;76.10;;;;;;5077658;28;20373;-76
2022/05/25 03:08:35;;;;;;;1.13;0.60;;;13.70;75.70;;;;;;5077157;28;20105;-75
2022/05/25 03:11:01;;;;;;;0.47;0.40;;;13.70;75.80;;;;;;5077155;28;20519;-74
2022/05/25 03:13:26;;;;;;;1.35;0.47;;;13.60;75.70;;;;;;5077407;28;20055;-75
2022/05/25 03:15:52;;;;;;;0.75;0.43;;;13.70;76.10;;;;;;5095495;28;20099;-74
2022/05/25 03:18:18;;;;;;;2.15;0.57;;;13.60;76.20;;;;;;5095312;28;20020;-75
2022/05/25 03:20:44;;;;;;;1.40;0.50;;;13.70;76.50;;;;;;5077138;28;20031;-74
2022/05/25 03:23:09;;;;;;;1.65;0.57;;;13.70;76.00;;;;;;5076777;28;20052;-75
2022/05/25 03:25:35;;;;;;;2.05;0.40;;;13.70;76.50;;;;;;5076790;28;20118;-74
2022/05/25 03:28:03;;;;;;;4.80;0.50;;;13.60;75.50;;;;;;5076719;28;20051;-74
2022/05/25 03:30:28;;;;;;;2.10;0.50;;;13.60;75.80;;;;;;5077018;28;20059;-75
2022/05/25 03:32:54;;;;;;;2.00;0.50;;;13.60;75.10;;;;;;5077168;28;20625;-75
2022/05/25 03:35:19;;;;;;;1.08;0.50;;;13.60;74.90;;;;;;5076655;28;20026;-74
2022/05/25 03:37:47;;;;;;;0.75;0.40;;;13.60;75.50;;;;;;5094798;28;20518;-75
2022/05/25 03:40:14;;;;;;;2.83;0.73;;;13.60;74.40;;;;;;5076580;28;20016;-75
2022/05/25 03:42:40;;;;;;;1.05;0.30;;;13.60;74.20;;;;;;5076351;28;20438;-74
2022/05/25 03:45:07;;;;;;;3.05;0.45;;;13.50;74.30;;;;;;5076310;28;20032;-76
2022/05/25 03:47:33;;;;;;;0.52;0.40;;;13.50;74.10;;;;;;5076357;28;20026;-75
2022/05/25 03:49:59;;;;;;;2.05;0.40;;;13.50;74.10;;;;;;5076470;28;20020;-75
2022/05/25 03:52:25;;;;;;;2.13;0.60;;;13.60;73.80;;;;;;5076280;28;20533;-75
2022/05/25 03:54:51;;;;;;;2.45;0.45;;;13.60;73.50;;;;;;5076185;28;20107;-75
2022/05/25 03:57:18;;;;;;;0.98;0.45;;;13.50;73.40;;;;;;5076118;28;20031;-75
2022/05/25 03:59:45;;;;;;;1.08;0.40;;;13.40;73.50;;;;;;5076238;28;20016;-75
2022/05/25 04:02:11;;;;;;;1.00;0.50;;;13.40;73.50;;;;;;5076078;28;20024;-75
2022/05/25 04:04:36;;;;;;;1.90;0.50;;;13.40;73.20;;;;;;5076051;28;20028;-75
2022/05/25 04:07:02;;;;;;;2.05;0.70;;;13.40;73.00;;;;;;5076180;28;20043;-74
2022/05/25 04:09:28;;;;;;;0.70;0.47;;;13.40;72.90;;;;;;5075910;28;20077;-75
2022/05/25 04:11:53;;;;;;;1.75;0.50;;;13.40;73.20;;;;;;5075173;28;20055;-75
2022/05/25 04:14:19;;;;;;;4.78;0.75;;;13.50;73.30;;;;;;5075770;28;20100;-75
2022/05/25 04:16:45;;;;;;;0.57;0.47;;;13.50;73.30;;;;;;5092677;28;20495;-75
2022/05/25 04:19:11;;;;;;;1.45;0.50;;;13.50;73.10;;;;;;5075663;28;20024;-75
2022/05/25 04:21:37;;;;;;;2.83;0.50;;;13.50;73.80;;;;;;5075297;28;20028;-75
2022/05/25 04:24:04;;;;;;;2.50;0.50;;;13.40;72.80;;;;;;5075990;28;20050;-76
2022/05/25 04:26:30;;;;;;;0.73;0.50;;;13.30;72.70;;;;;;5075757;28;20035;-75
2022/05/25 04:28:57;;;;;;;0.90;0.40;;;13.30;72.80;;;;;;5075676;28;20119;-75
2022/05/25 04:31:22;;;;;;;2.58;0.70;;;13.30;72.90;;;;;;5075741;28;20028;-75
2022/05/25 04:33:48;;;;;;;2.42;0.50;;;13.30;73.10;;;;;;5075737;28;20020;-75
2022/05/25 04:36:15;;;;;;;3.80;0.80;;;13.30;73.20;;;;;;5075499;28;20365;-75
2022/05/25 04:38:40;;;;;;;2.85;0.90;;;13.30;73.50;;;;;;5075509;28;20063;-75
2022/05/25 04:41:06;;;;;;;1.65;0.50;;;13.30;73.90;;;;;;5075273;28;20041;-76
2022/05/25 04:43:32;;;;;;;1.35;0.57;;;13.30;74.40;;;;;;5075432;28;20020;-76
2022/05/25 04:46:01;;;;;;;1.42;0.60;;;13.40;73.20;;;;;;5075418;28;20032;-76
2022/05/25 04:48:29;;;;;;;3.80;0.70;;;13.40;73.00;;;;;;5093527;28;20020;-76
2022/05/25 04:50:56;;;;;;;0.50;0.40;;;13.40;72.70;;;;;;5075199;28;20035;-76
2022/05/25 04:53:23;;;;;;;1.65;0.50;;;13.40;72.40;;;;;;5075099;28;20028;-76
2022/05/25 04:58:37;;;;;;;0.70;0.50;;;13.40;72.00;;;;;;5093577;28;20031;-76
2022/05/25 05:01:04;;;;;;;1.23;0.40;;;13.50;72.20;;;;;;5093494;28;20023;-76
2022/05/25 05:03:30;;;;;;;2.78;0.57;;;13.50;72.40;;;;;;5074967;28;20028;-74
2022/05/25 05:05:57;;;;;;;2.83;0.60;;;13.50;72.60;;;;;;5075145;28;20036;-77
2022/05/25 05:08:23;;;;;;;2.78;0.73;;;13.60;72.80;;;;;;5075121;28;20402;-75
2022/05/25 05:10:49;;;;;;;0.82;0.40;;;13.50;73.50;;;;;;5074818;28;20030;-76
2022/05/25 05:13:15;;;;;;;3.10;0.57;;;13.50;73.30;;;;;;5074954;28;20537;-75
2022/05/25 05:15:45;;;;;;;4.60;0.60;;;13.70;73.10;;;;;;5074860;28;20028;-74
2022/05/25 05:18:11;;;;;;;1.58;0.60;;;13.70;73.20;;;;;;5074921;28;20047;-75
2022/05/25 05:20:37;;;;;;;2.95;0.80;;;13.70;73.20;;;;;;5074449;28;20031;-74
2022/05/25 05:23:05;;;;;;;1.15;0.60;;;13.80;73.80;;;;;;5073684;28;20093;-75
2022/05/25 05:25:31;;;;;;;1.70;0.80;;;13.90;72.60;;;;;;5074614;28;20038;-75
2022/05/25 05:28:11;;;;;;;6.50;0.98;;;14.00;72.30;;;;;;5074566;28;20086;-75
2022/05/25 05:30:42;;;;;;;5.97;0.70;;;14.10;72.10;;;;;;5073849;28;20036;-76
2022/05/25 05:33:08;;;;;;;1.05;0.55;;;14.20;71.60;;;;;;5074362;28;20024;-77
2022/05/25 05:35:34;;;;;;;1.15;0.75;;;14.30;71.30;;;;;;5074375;28;20024;-77
2022/05/25 05:38:00;;;;;;;1.80;0.88;;;14.50;70.90;;;;;;5074273;28;20023;-76
2022/05/25 05:40:27;;;;;;;0.65;0.30;;;14.70;70.40;;;;;;5074301;28;20107;-76
2022/05/25 05:42:55;;;;;;;1.35;0.60;;;14.90;69.90;;;;;;5074656;28;20028;-77
2022/05/25 05:45:25;;;;;;;2.22;0.70;;;15.10;70.10;;;;;;5073913;28;20472;-78
2022/05/25 05:47:55;;;;;;;3.67;0.80;;;15.10;68.60;;;;;;5073828;28;20028;-74
2022/05/25 05:50:23;;;;;;;1.05;0.60;;;15.30;67.70;;;;;;5074539;28;20138;-76
2022/05/25 05:52:50;;;;;;;4.07;0.68;;;15.40;67.10;;;;;;5074475;28;20380;-77
2022/05/25 05:55:17;;;;;;;1.20;0.70;;;15.50;66.20;;;;;;5057559;28;20447;-78
2022/05/25 05:57:43;;;;;;;1.13;0.60;;;15.60;64.70;;;;;;5074316;28;20020;-78
2022/05/25 06:00:11;;;;;;;1.98;0.70;;;15.50;63.20;;;;;;5074382;28;20127;-79
2022/05/25 06:02:37;;;;;;;1.92;0.73;;;15.40;62.10;;;;;;5074262;28;20028;-78
2022/05/25 06:05:03;;;;;;;0.70;0.43;;;15.20;62.30;;;;;;5073866;28;20484;-77
2022/05/25 06:07:29;;;;;;;1.33;0.68;;;15.20;63.00;;;;;;5074228;28;20044;-78
2022/05/25 06:09:56;;;;;;;1.42;0.68;;;15.30;63.50;;;;;;5074346;28;20028;-78
2022/05/25 06:12:22;;;;;;;3.25;1.02;;;15.30;63.50;;;;;;5074344;28;20031;-77
2022/05/25 06:14:48;;;;;;;2.22;0.57;;;15.40;62.70;;;;;;5074425;28;20073;-78
2022/05/25 06:19:59;;;;;;;1.13;0.80;;;15.40;61.00;;;;;;5092420;28;20023;-76
2022/05/25 06:22:27;;;;;;;0.88;0.68;;;15.50;61.40;;;;;;5065740;28;20048;-78
2022/05/25 06:24:53;;;;;;;2.60;0.80;;;15.50;60.50;;;;;;5053509;28;20036;-76
2022/05/25 06:27:21;;;;;;;1.40;0.60;;;15.50;59.80;;;;;;5054586;28;20021;-76
2022/05/25 06:29:48;;;;;;;2.30;0.57;;;15.60;60.30;;;;;;5055033;28;20120;-77
2022/05/25 06:32:17;;;;;;;1.08;0.55;;;15.70;59.90;;;;;;5054125;28;20071;-76
2022/05/25 06:34:47;;;;;;;2.17;0.50;;;15.70;60.00;;;;;;5056796;28;20392;-77
2022/05/25 06:37:31;;;;;;;1.13;0.70;;;15.70;59.90;;;;;;5057676;28;20020;-76
2022/05/25 06:39:57;;;;;;;3.13;0.70;;;15.70;58.70;;;;;;5057519;28;20487;-77
2022/05/25 06:42:23;;;;;;;1.40;0.50;;;15.80;58.40;;;;;;5075050;28;20362;-76
2022/05/25 06:44:48;;;;;;;0.55;0.45;;;15.90;58.40;;;;;;5056819;28;20082;-76
2022/05/25 06:47:18;;;;;;;1.15;0.63;;;16.10;56.90;;;;;;5057138;28;20059;-76
2022/05/25 06:49:44;;;;;;;3.20;0.90;;;15.70;55.60;;;;;;5057442;28;20062;-76
2022/05/25 06:52:12;;;;;;;4.40;0.90;;;15.40;56.40;;;;;;5056862;28;20028;-76
2022/05/25 06:54:37;;;;;;;1.67;0.82;;;15.30;58.30;;;;;;5056822;28;20074;-76
2022/05/25 06:57:04;;;;;;;0.85;0.60;;;15.20;58.80;;;;;;5056817;28;20032;-77
2022/05/25 06:59:29;;;;;;;1.40;0.47;;;15.40;57.00;;;;;;5056385;28;20020;-78
2022/05/25 07:01:55;;;;;;;2.92;0.80;;;15.60;54.00;;;;;;5056844;28;20035;-77
2022/05/25 07:04:21;;;;;;;6.60;0.75;;;15.90;53.30;;;;;;5056487;28;20465;-76
2022/05/25 07:06:48;;;;;;;1.02;0.60;;;16.10;52.50;;;;;;5074344;28;20048;-76
2022/05/25 07:09:13;;;;;;;1.00;0.57;;;16.20;49.30;;;;;;5056404;28;20034;-75
2022/05/25 07:11:41;;;;;;;9.07;1.20;;;16.40;50.30;;;;;;5056985;28;20021;-75
2022/05/25 07:14:07;;;;;;;18.38;2.10;;;16.50;53.80;;;;;;5056790;28;20025;-73
2022/05/25 07:16:32;;;;;;;5.75;1.08;;;17.00;63.90;;;;;;5057180;28;20112;-73
2022/05/25 07:18:58;;;;;;;14.98;0.88;;;17.40;57.80;;;;;;5056641;28;20028;-73
2022/05/25 07:21:27;;;;;;;3.42;0.50;;;17.70;53.50;;;;;;5056736;28;20017;-72
2022/05/25 07:23:55;;;;;;;3.35;0.70;;;17.80;49.10;;;;;;5057541;28;20059;-73
2022/05/25 07:26:22;;;;;;;1.15;0.57;;;18.10;50.00;;;;;;5056556;28;20036;-73
2022/05/25 07:28:50;;;;;;;1.63;0.73;;;18.00;45.90;;;;;;5056510;28;20055;-73
2022/05/25 07:31:25;;;;;;;3.08;0.52;;;17.60;46.70;;;;;;5056393;28;20523;-73
2022/05/25 07:33:59;;;;;;;5.38;0.63;;;17.50;46.30;;;;;;5056306;28;20417;-73
2022/05/25 07:36:25;;;;;;;2.80;0.47;;;17.60;47.10;;;;;;5073065;28;20449;-73
2022/05/25 07:38:53;;;;;;;3.40;0.80;;;17.60;45.60;;;;;;5056374;28;20020;-74
2022/05/25 07:41:19;;;;;;;1.50;0.50;;;17.60;47.80;;;;;;5056367;28;20484;-71
2022/05/25 07:43:48;;;;;;;1.67;0.80;;;17.70;48.30;;;;;;5074218;28;20024;-72
2022/05/25 07:46:13;;;;;;;2.47;0.50;;;18.10;47.60;;;;;;5055315;28;20033;-72
2022/05/25 07:48:39;;;;;;;3.30;0.65;;;18.50;46.40;;;;;;5056098;28;20023;-72
2022/05/25 07:51:05;;;;;;;3.78;0.80;;;18.50;45.80;;;;;;5056065;28;20375;-72
2022/05/25 07:56:17;;;;;;;2.60;0.60;;;18.80;45.00;;;;;;5073845;28;20035;-72
2022/05/25 07:58:42;;;;;;;0.70;0.60;;;19.10;43.90;;;;;;5055832;28;20021;-72
2022/05/25 08:01:15;;;;;;;3.50;0.43;;;19.30;42.60;;;;;;5056143;28;20047;-72
2022/05/25 08:06:27;;;;;;;2.65;0.73;;;19.00;42.90;;;;;;5073530;28;20075;-73
2022/05/25 08:08:54;;;;;;;5.97;0.88;;;19.10;42.20;;;;;;5055119;28;20024;-73
2022/05/25 08:11:21;;;;;;;3.13;1.65;;;19.00;43.10;;;;;;5055056;28;20025;-73
2022/05/25 08:13:52;;;;;;;2.03;0.57;;;18.90;42.30;;;;;;5055379;28;20036;-73
2022/05/25 08:16:17;;;;;;;3.85;0.77;;;18.80;42.40;;;;;;5055192;28;20055;-73
2022/05/25 08:18:43;;;;;;;1.38;0.45;;;18.60;42.80;;;;;;5054802;28;20020;-73
2022/05/25 08:21:09;;;;;;;1.45;0.70;;;18.20;46.20;;;;;;5054943;28;20025;-73
2022/05/25 08:23:34;;;;;;;1.73;0.55;;;18.30;46.10;;;;;;5074076;28;20044;-72
2022/05/25 08:26:00;;;;;;;3.50;0.80;;;18.10;46.10;;;;;;5082916;28;20395;-73
2022/05/25 08:28:26;;;;;;;2.25;0.60;;;18.10;44.70;;;;;;5092574;28;20456;-72
2022/05/25 08:30:52;;;;;;;2.90;0.70;;;18.00;45.30;;;;;;5092135;28;20464;-73
2022/05/25 08:33:20;;;;;;;1.50;0.50;;;18.00;45.70;;;;;;5075180;28;20428;-73
2022/05/25 08:35:47;;;;;;;1.70;0.63;;;17.90;45.90;;;;;;5078757;28;20023;-72
2022/05/25 08:38:13;;;;;;;0.80;0.60;;;18.00;45.70;;;;;;5075178;28;20020;-73
2022/05/25 08:40:40;;;;;;;1.00;0.65;;;18.00;45.80;;;;;;5074946;28;20119;-72
2022/05/25 08:43:08;;;;;;;3.05;0.68;;;18.10;46.00;;;;;;5075159;28;20031;-73
2022/05/25 08:45:48;;;;;;;2.58;0.50;;;18.50;46.40;;;;;;5074948;28;20377;-72
2022/05/25 08:48:17;;;;;;;1.48;0.75;;;18.70;44.70;;;;;;5074876;28;20024;-72
2022/05/25 08:50:46;;;;;;;0.70;0.50;;;18.80;43.00;;;;;;5074758;28;20488;-72
2022/05/25 08:53:13;;;;;;;3.13;0.68;;;18.90;41.20;;;;;;5075034;28;20077;-72
2022/05/25 08:56:01;;;;;;;1.10;0.50;;;19.10;42.10;;;;;;5074748;28;20433;-73
2022/05/25 08:58:40;;;;;;;1.08;0.50;;;19.00;41.80;;;;;;5074886;28;20070;-72
2022/05/25 09:01:08;;;;;;;2.42;0.77;;;18.90;42.70;;;;;;5075433;28;20119;-73
2022/05/25 09:03:54;;;;;;;1.00;0.50;;;19.00;43.00;;;;;;5074707;28;20023;-73
2022/05/25 09:06:45;;;;;;;3.55;1.70;;;19.10;42.80;;;;;;5092853;28;20036;-72
2022/05/25 09:09:39;;;;;;;7.70;3.28;;;19.40;43.00;;;;;;5079526;28;20036;-74
2022/05/25 09:12:11;;;;;;;4.10;0.75;;;19.30;42.10;;;;;;5079017;28;20096;-74
2022/05/25 09:14:58;;;;;;;2.58;0.60;;;18.80;42.00;;;;;;5074899;28;20465;-76
2022/05/25 09:17:32;;;;;;;1.23;0.60;;;18.50;43.30;;;;;;5074200;28;20024;-74
2022/05/25 09:20:00;;;;;;;4.18;0.70;;;18.50;43.50;;;;;;5075139;28;20078;-75
2022/05/25 09:22:26;;;;;;;0.93;0.40;;;18.50;42.90;;;;;;5077229;28;20442;-75
2022/05/25 09:24:59;;;;;;;7.03;1.73;;;18.50;41.30;;;;;;5076552;28;20035;-75
2022/05/25 09:27:43;;;;;;;1.77;0.55;;;18.50;42.10;;;;;;5074358;28;20024;-75
2022/05/25 09:30:10;;;;;;;2.40;0.32;;;18.30;40.80;;;;;;5070755;28;20034;-75
2022/05/25 09:33:01;;;;;;;1.15;0.40;;;18.50;41.50;;;;;;5092675;28;20165;-74
2022/05/25 09:35:31;;;;;;;2.42;0.40;;;18.50;41.10;;;;;;5068585;28;20532;-74
2022/05/25 09:38:11;;;;;;;0.70;0.40;;;18.70;40.60;;;;;;5074535;28;20024;-75
2022/05/25 09:40:51;;;;;;;0.77;0.40;;;18.70;39.50;;;;;;5074491;28;20032;-74
2022/05/25 09:43:23;;;;;;;4.97;0.70;;;18.50;39.00;;;;;;5074496;28;20028;-75
2022/05/25 09:45:50;;;;;;;4.65;1.20;;;18.60;39.00;;;;;;5079594;28;20028;-75
2022/05/25 09:48:22;;;;;;;8.82;4.45;;;18.50;40.40;;;;;;5092565;28;20032;-74
2022/05/25 09:51:02;;;;;;;2.85;0.43;;;18.60;40.20;;;;;;5074278;28;20024;-74
2022/05/25 09:53:43;;;;;;;1.20;0.60;;;18.90;43.40;;;;;;5076543;28;20115;-75
2022/05/25 09:56:21;;;;;;;0.90;0.50;;;19.20;39.80;;;;;;5106692;28;20024;-75
2022/05/25 09:58:52;;;;;;;2.60;0.77;;;19.50;41.60;;;;;;5080912;28;20020;-75
2022/05/25 10:01:31;;;;;;;0.63;0.30;;;20.00;40.40;;;;;;5064847;28;20139;-73
2022/05/25 10:03:58;;;;;;;0.55;0.32;;;20.10;39.00;;;;;;5095921;28;20494;-73
2022/05/25 10:06:29;;;;;;;1.65;0.60;;;19.90;37.40;;;;;;5081870;28;20040;-74
2022/05/25 10:09:23;;;;;;;3.63;0.43;;;19.80;40.70;;;;;;5075689;28;20020;-74
2022/05/25 10:11:51;;;;;;;1.30;0.70;;;20.00;38.60;;;;;;5077903;28;20024;-75
2022/05/25 10:14:21;;;;;;;2.08;0.60;;;19.90;37.80;;;;;;5077494;28;20038;-75
2022/05/25 10:16:47;;;;;;;1.98;0.50;;;19.50;36.70;;;;;;5079582;28;20389;-76
2022/05/25 10:19:17;;;;;;;0.63;0.30;;;19.30;37.40;;;;;;5078083;28;20020;-75
2022/05/25 10:21:48;;;;;;;0.80;0.30;;;19.40;37.90;;;;;;5078300;28;20055;-75
2022/05/25 10:24:34;;;;;;;4.28;0.85;;;19.20;38.70;;;;;;5081679;28;20085;-75
2022/05/25 10:27:03;;;;;;;1.23;0.77;;;19.40;39.30;;;;;;5078145;28;20031;-75
2022/05/25 10:38:27;;;;;;;3.22;0.65;;;19.70;37.50;;;;;;5095568;28;20471;-74
2022/05/25 10:40:56;;;;;;;2.80;0.40;;;19.40;38.60;;;;;;5095261;28;20019;-74
2022/05/25 10:43:31;;;;;;;1.75;0.50;;;19.50;39.50;;;;;;5085751;28;20020;-74
2022/05/25 10:46:01;;;;;;;1.50;0.50;;;19.20;39.60;;;;;;5083234;28;20040;-76
2022/05/25 10:48:56;;;;;;;1.48;0.50;;;19.20;41.20;;;;;;5102546;28;20024;-77
2022/05/25 10:51:51;;;;;;;4.82;0.40;;;19.10;41.00;;;;;;5055247;28;20101;-78
2022/05/25 10:54:45;;;;;;;3.67;0.70;;;19.20;40.90;;;;;;5068335;28;20052;-76
2022/05/25 10:57:44;;;;;;;0.90;0.25;;;19.30;40.60;;;;;;5057098;28;20423;-76
2022/05/25 11:00:53;;;;;;;5.13;0.57;;;19.60;40.90;;;;;;5070408;28;20155;-75
2022/05/25 11:03:38;;;;;;;1.23;0.30;;;19.50;40.50;;;;;;5079849;28;20190;-77
2022/05/25 11:06:34;;;;;;;3.05;0.60;;;19.60;40.40;;;;;;5056921;28;20036;-76
2022/05/25 11:09:08;;;;;;;0.63;0.45;;;19.70;41.00;;;;;;5057184;28;20025;-76
2022/05/25 11:11:42;;;;;;;4.13;0.40;;;20.10;39.50;;;;;;5073908;28;20025;-76
2022/05/25 11:14:32;;;;;;;0.77;0.30;;;20.70;39.40;;;;;;5073593;28;20383;-76
2022/05/25 11:17:36;;;;;;;1.58;0.40;;;21.00;36.80;;;;;;5073240;28;20156;-76
2022/05/25 11:20:35;;;;;;;3.53;0.50;;;21.30;36.70;;;;;;5065394;28;20123;-76
2022/05/25 11:23:04;;;;;;;0.98;0.43;;;21.60;35.20;;;;;;5068094;28;20045;-76
2022/05/25 11:25:48;;;;;;;1.95;0.50;;;20.90;35.40;;;;;;5073047;28;20044;-75
2022/05/25 11:28:33;;;;;;;4.10;0.70;;;20.20;37.30;;;;;;5073157;28;20013;-76
2022/05/25 11:31:36;;;;;;;1.42;0.50;;;19.90;38.40;;;;;;5073072;28;20036;-77
2022/05/25 11:34:14;;;;;;;1.67;0.50;;;19.70;39.80;;;;;;5074397;28;20037;-76
2022/05/25 11:37:10;;;;;;;1.20;0.30;;;20.10;38.30;;;;;;5073340;28;20024;-75
2022/05/25 11:39:39;;;;;;;;;;;20.20;38.40;;;;;;5030456;28;20025;-75
2022/05/25 11:42:39;;;;;;;0.52;0.38;;;20.50;38.90;;;;;;5073107;28;19912;-77
2022/05/25 11:45:30;;;;;;;5.78;2.10;;;20.80;36.70;;;;;;5072451;28;20071;-76
2022/05/25 11:48:11;;;;;;;2.03;0.45;;;21.50;36.60;;;;;;5056029;28;20406;-76
2022/05/25 11:50:40;;;;;;;1.55;0.45;;;21.80;36.10;;;;;;5072434;28;20024;-76
2022/05/25 11:53:43;;;;;;;5.47;0.63;;;22.00;36.00;;;;;;5091558;28;20479;-76
2022/05/25 11:56:44;;;;;;;1.60;0.38;;;22.40;35.20;;;;;;5096325;28;20027;-73
2022/05/25 11:59:29;;;;;;;2.83;0.47;;;22.20;34.00;;;;;;5072972;28;20054;-76
2022/05/25 12:02:16;;;;;;;3.45;0.40;;;21.70;33.90;;;;;;5096255;28;20062;-76
2022/05/25 12:04:53;;;;;;;1.48;0.57;;;21.60;34.40;;;;;;5096023;28;20077;-74
2022/05/25 12:07:38;;;;;;;4.57;0.50;;;21.70;36.00;;;;;;5096411;28;20024;-75
2022/05/25 12:10:06;;;;;;;3.40;0.40;;;21.70;34.90;;;;;;5096499;28;20019;-75
2022/05/25 12:12:52;;;;;;;1.88;0.50;;;21.60;36.30;;;;;;5096125;28;20088;-77
2022/05/25 12:15:23;;;;;;;2.38;0.50;;;21.90;34.00;;;;;;5096256;28;20028;-75
2022/05/25 12:18:13;;;;;;;2.28;0.80;;;21.80;35.90;;;;;;5096195;28;20019;-73
2022/05/25 12:20:43;;;;;;;0.93;0.40;;;22.00;34.20;;;;;;5095902;28;20055;-75
2022/05/25 12:23:23;;;;;;;4.25;0.55;;;22.30;34.10;;;;;;5081814;28;20040;-77
2022/05/25 12:26:03;;;;;;;1.70;0.30;;;22.00;34.50;;;;;;5075979;28;20126;-76
2022/05/25 12:28:34;;;;;;;2.50;0.40;;;21.70;34.20;;;;;;5059491;28;20108;-76
2022/05/25 12:31:04;;;;;;;2.13;0.60;;;21.60;34.70;;;;;;5075327;28;20562;-75
2022/05/25 12:33:31;;;;;;;1.00;0.30;;;21.70;34.70;;;;;;5075667;28;20028;-74
2022/05/25 12:36:01;;;;;;;1.75;0.40;;;22.10;34.30;;;;;;5075344;28;20028;-75
2022/05/25 12:38:29;;;;;;;2.05;0.50;;;22.50;32.40;;;;;;5075310;28;20039;-75
2022/05/25 12:40:55;;;;;;;3.35;0.57;;;22.80;32.40;;;;;;5075307;28;20097;-75
2022/05/25 12:43:39;;;;;;;3.03;0.60;;;23.00;31.70;;;;;;5074735;28;20408;-76
2022/05/25 12:48:57;;;;;;;0.85;0.40;;;22.20;32.50;;;;;;5093570;28;20166;-75
2022/05/25 12:51:39;;;;;;;1.38;0.32;;;22.40;32.70;;;;;;5075135;28;20059;-75
2022/05/25 12:54:22;;;;;;;0.63;0.30;;;22.70;31.90;;;;;;5075226;28;20020;-76
2022/05/25 12:56:49;;;;;;;1.58;0.50;;;22.60;30.80;;;;;;5074696;28;20040;-77
2022/05/25 12:59:34;;;;;;;1.13;0.40;;;22.30;33.10;;;;;;5075319;28;20028;-76
2022/05/25 13:02:10;;;;;;;0.45;0.32;;;22.00;33.20;;;;;;5074722;28;20059;-77
2022/05/25 13:04:55;;;;;;;0.20;0.20;;;22.60;32.10;;;;;;5074162;28;20035;-76
2022/05/25 13:07:33;;;;;;;0.52;0.40;;;23.10;31.80;;;;;;5075052;28;20062;-77
2022/05/25 13:10:00;;;;;;;3.67;0.50;;;23.10;31.30;;;;;;5075069;28;20452;-76
2022/05/25 13:12:42;;;;;;;2.72;0.45;;;22.60;31.80;;;;;;5074916;28;20024;-76
2022/05/25 13:15:14;;;;;;;2.17;0.70;;;22.40;31.90;;;;;;5093456;28;20480;-76
2022/05/25 13:17:45;;;;;;;6.50;0.82;;;21.90;33.40;;;;;;5074779;28;20397;-76
2022/05/25 13:20:28;;;;;;;1.42;0.60;;;21.80;34.20;;;;;;5055723;28;20086;-76
2022/05/25 13:23:02;;;;;;;1.38;0.63;;;21.60;34.90;;;;;;5067180;28;20097;-77
2022/05/25 13:25:48;;;;;;;4.13;0.85;;;22.00;33.90;;;;;;5074994;28;20115;-76
2022/05/25 13:28:23;;;;;;;1.98;0.50;;;21.30;34.70;;;;;;5079268;28;20036;-76
2022/05/25 13:31:15;;;;;;;1.35;0.50;;;21.30;36.00;;;;;;5072347;28;20070;-76
2022/05/25 13:33:43;;;;;;;2.25;0.63;;;21.30;35.40;;;;;;5072325;28;20060;-75
2022/05/25 13:36:24;;;;;;;5.95;0.75;;;21.20;35.80;;;;;;5071615;28;20031;-74
2022/05/25 13:39:00;;;;;;;2.05;0.70;;;21.60;35.30;;;;;;5072602;28;20035;-75
2022/05/25 13:41:32;;;;;;;1.05;0.60;;;21.60;36.40;;;;;;5071269;28;20027;-75